createdAt,value
2023-04-16T00:00:38.213Z,98626.00
2023-04-16T00:03:04.933Z,98630.40
2023-04-16T00:05:31.679Z,98633.60
2023-04-16T00:07:58.056Z,98635.00
2023-04-16T00:10:24.503Z,98632.80
2023-04-16T00:12:50.946Z,98634.60
2023-04-16T00:15:17.378Z,98631.60
2023-04-16T00:17:43.888Z,98635.20
2023-04-16T00:20:11.463Z,98631.80
2023-04-16T00:22:37.931Z,98638.20
2023-04-16T00:25:05.101Z,98636.20
2023-04-16T00:27:31.558Z,98630.20
2023-04-16T00:29:57.953Z,98637.60
2023-04-16T00:32:24.473Z,98638.60
2023-04-16T00:34:50.902Z,98640.40
2023-04-16T00:37:17.472Z,98637.20
2023-04-16T00:39:43.864Z,98639.80
2023-04-16T00:42:10.400Z,98646.80
2023-04-16T00:44:36.992Z,98648.60
2023-04-16T00:47:04.243Z,98646.80
2023-04-16T00:49:31.513Z,98647.60
2023-04-16T00:51:58.023Z,98651.00
2023-04-16T00:54:26.119Z,98648.20
2023-04-16T00:56:52.611Z,98656.80
2023-04-16T00:59:19.869Z,98654.20
2023-04-16T01:01:46.335Z,98656.20
2023-04-16T01:04:12.986Z,98657.80
2023-04-16T01:06:39.546Z,98657.40
2023-04-16T01:09:05.968Z,98656.60
2023-04-16T01:11:32.685Z,98658.80
2023-04-16T01:13:59.083Z,98657.00
2023-04-16T01:16:26.871Z,98653.20
2023-04-16T01:18:53.378Z,98657.00
2023-04-16T01:21:19.835Z,98659.00
2023-04-16T01:23:46.297Z,98657.20
2023-04-16T01:26:12.658Z,98659.40
2023-04-16T01:28:39.188Z,98654.40
2023-04-16T01:31:05.875Z,98656.00
2023-04-16T01:33:32.262Z,98657.20
2023-04-16T01:35:58.636Z,98656.20
2023-04-16T01:38:25.209Z,98654.80
2023-04-16T01:40:57.525Z,98655.00
2023-04-16T01:43:23.960Z,98655.00
2023-04-16T01:45:50.406Z,98655.60
2023-04-16T01:48:16.951Z,98657.60
2023-04-16T01:50:43.479Z,98656.80
2023-04-16T01:53:10.082Z,98662.80
2023-04-16T01:55:36.519Z,98662.80
2023-04-16T01:58:03.001Z,98660.60
2023-04-16T02:00:29.422Z,98665.20
2023-04-16T02:02:56.292Z,98668.60
2023-04-16T02:05:22.889Z,98669.40
2023-04-16T02:07:49.464Z,98673.80
2023-04-16T02:13:03.475Z,98683.20
2023-04-16T02:15:29.851Z,98680.60
2023-04-16T02:17:57.231Z,98684.00
2023-04-16T02:20:23.981Z,98687.00
2023-04-16T02:22:50.435Z,98691.00
2023-04-16T02:25:16.958Z,98689.80
2023-04-16T02:27:43.332Z,98694.00
2023-04-16T02:30:10.770Z,98698.20
2023-04-16T02:32:37.182Z,98700.40
2023-04-16T02:35:04.542Z,98699.00
2023-04-16T02:37:30.944Z,98695.60
2023-04-16T02:39:57.835Z,98697.80
2023-04-16T02:42:24.310Z,98698.40
2023-04-16T02:44:50.767Z,98708.00
2023-04-16T02:47:17.263Z,98704.20
2023-04-16T02:49:43.720Z,98702.60
2023-04-16T02:52:10.132Z,98704.20
2023-04-16T02:54:36.583Z,98706.80
2023-04-16T02:57:03.456Z,98714.80
2023-04-16T02:59:29.914Z,98715.80
2023-04-16T03:01:56.590Z,98713.40
2023-04-16T03:04:23.257Z,98716.60
2023-04-16T03:06:49.801Z,98720.40
2023-04-16T03:09:16.279Z,98713.80
2023-04-16T03:11:42.717Z,98719.80
2023-04-16T03:14:09.343Z,98718.60
2023-04-16T03:16:36.564Z,98719.80
2023-04-16T03:19:03.056Z,98726.00
2023-04-16T03:21:29.731Z,98721.00
2023-04-16T03:23:57.284Z,98722.60
2023-04-16T03:26:23.652Z,98725.00
2023-04-16T03:28:50.027Z,98725.80
2023-04-16T03:31:16.538Z,98727.40
2023-04-16T03:33:43.072Z,98733.80
2023-04-16T03:36:10.134Z,98733.80
2023-04-16T03:38:36.953Z,98740.20
2023-04-16T03:41:03.512Z,98738.60
2023-04-16T03:43:29.975Z,98738.20
2023-04-16T03:45:56.619Z,98739.00
2023-04-16T03:48:23.167Z,98748.20
2023-04-16T03:50:49.667Z,98741.80
2023-04-16T03:53:16.500Z,98751.80
2023-04-16T03:55:43.471Z,98751.40
2023-04-16T03:58:10.598Z,98750.40
2023-04-16T04:00:37.082Z,98753.60
2023-04-16T04:03:03.709Z,98761.40
2023-04-16T04:05:30.638Z,98764.60
2023-04-16T04:07:57.005Z,98771.20
2023-04-16T04:10:23.439Z,98771.00
2023-04-16T04:12:49.870Z,98776.20
2023-04-16T04:15:16.519Z,98778.20
2023-04-16T04:17:43.100Z,98780.40
2023-04-16T04:20:10.482Z,98780.00
2023-04-16T04:22:36.946Z,98780.20
2023-04-16T04:25:03.525Z,98777.60
2023-04-16T04:27:29.946Z,98785.60
2023-04-16T04:29:56.768Z,98788.40
2023-04-16T04:32:23.541Z,98789.20
2023-04-16T04:34:50.286Z,98787.80
2023-04-16T04:37:16.754Z,98789.20
2023-04-16T04:39:43.179Z,98787.20
2023-04-16T04:42:09.669Z,98788.80
2023-04-16T04:44:36.193Z,98792.80
2023-04-16T04:47:02.840Z,98793.60
2023-04-16T04:49:30.470Z,98796.20
2023-04-16T04:51:56.952Z,98797.00
2023-04-16T04:54:23.515Z,98798.80
2023-04-16T04:56:51.090Z,98801.00
2023-04-16T04:59:17.465Z,98803.00
2023-04-16T05:01:43.996Z,98805.60
2023-04-16T05:04:10.432Z,98807.80
2023-04-16T05:06:36.979Z,98813.80
2023-04-16T05:09:03.536Z,98807.80
2023-04-16T05:11:30.375Z,98808.40
2023-04-16T05:13:57.072Z,98815.80
2023-04-16T05:16:23.466Z,98819.00
2023-04-16T05:18:50.882Z,98814.20
2023-04-16T05:21:17.262Z,98826.20
2023-04-16T05:23:43.665Z,98823.20
2023-04-16T05:26:10.328Z,98825.60
2023-04-16T05:28:36.732Z,98826.80
2023-04-16T05:31:03.299Z,98834.00
2023-04-16T05:33:29.824Z,98836.20
2023-04-16T05:35:56.235Z,98838.20
2023-04-16T05:38:22.988Z,98840.20
2023-04-16T05:40:49.593Z,98844.00
2023-04-16T05:43:15.977Z,98841.60
2023-04-16T05:45:42.519Z,98846.00
2023-04-16T05:48:09.348Z,98845.00
2023-04-16T05:50:36.721Z,98848.80
2023-04-16T05:53:07.286Z,98852.40
2023-04-16T05:55:35.514Z,98853.80
2023-04-16T05:58:04.322Z,98866.60
2023-04-16T06:00:34.147Z,98864.80
2023-04-16T06:03:01.128Z,98862.40
2023-04-16T06:05:28.343Z,98869.80
2023-04-16T06:07:56.019Z,98875.00
2023-04-16T06:10:31.053Z,98873.20
2023-04-16T06:12:57.517Z,98870.20
2023-04-16T06:15:23.922Z,98867.60
2023-04-16T06:17:51.053Z,98866.40
2023-04-16T06:20:17.602Z,98868.40
2023-04-16T06:22:50.297Z,98866.80
2023-04-16T06:25:18.247Z,98871.20
2023-04-16T06:27:44.931Z,98874.80
2023-04-16T06:30:13.944Z,98870.20
2023-04-16T06:32:40.960Z,98877.40
2023-04-16T06:35:20.002Z,98874.20
2023-04-16T06:37:47.115Z,98877.40
2023-04-16T06:40:13.554Z,98876.80
2023-04-16T06:42:40.073Z,98878.20
2023-04-16T06:45:07.745Z,98883.60
2023-04-16T06:47:41.801Z,98883.80
2023-04-16T06:50:08.721Z,98880.20
2023-04-16T06:52:35.622Z,98886.20
2023-04-16T06:55:02.773Z,98884.20
2023-04-16T06:57:29.229Z,98886.80
2023-04-16T06:59:56.068Z,98890.00
2023-04-16T07:02:22.746Z,98890.20
2023-04-16T07:04:49.379Z,98894.80
2023-04-16T07:07:15.875Z,98889.20
2023-04-16T07:09:42.281Z,98888.20
2023-04-16T07:12:08.799Z,98893.60
2023-04-16T07:14:44.472Z,98897.00
2023-04-16T07:17:10.917Z,98896.20
2023-04-16T07:19:37.312Z,98905.00
2023-04-16T07:22:04.645Z,98908.00
2023-04-16T07:24:31.238Z,98907.80
2023-04-16T07:26:58.462Z,98910.40
2023-04-16T07:29:25.023Z,98910.80
2023-04-16T07:31:51.517Z,98911.60
2023-04-16T07:34:18.343Z,98910.00
2023-04-16T07:36:44.775Z,98913.40
2023-04-16T07:39:12.263Z,98922.40
2023-04-16T07:41:41.324Z,98930.40
2023-04-16T07:44:08.116Z,98931.60
2023-04-16T07:46:43.626Z,98938.60
2023-04-16T07:49:13.028Z,98940.40
2023-04-16T07:51:40.279Z,98936.40
2023-04-16T07:54:07.268Z,98942.60
2023-04-16T07:56:33.903Z,98945.40
2023-04-16T07:59:05.426Z,98946.80
2023-04-16T08:01:45.638Z,98952.20
2023-04-16T08:04:12.643Z,98958.40
2023-04-16T08:06:39.215Z,98955.40
2023-04-16T08:09:05.662Z,98957.60
2023-04-16T08:11:32.102Z,98963.60
2023-04-16T08:13:58.728Z,98965.20
2023-04-16T08:16:25.292Z,98962.80
2023-04-16T08:18:52.072Z,98962.80
2023-04-16T08:21:18.498Z,98964.20
2023-04-16T08:23:45.025Z,98967.40
2023-04-16T08:26:11.601Z,98968.80
2023-04-16T08:28:38.004Z,98972.60
2023-04-16T08:31:04.628Z,98973.40
2023-04-16T08:33:31.096Z,98977.00
2023-04-16T08:35:57.499Z,98974.80
2023-04-16T08:38:23.966Z,98977.40
2023-04-16T08:40:50.675Z,98981.40
2023-04-16T08:43:19.218Z,98983.80
2023-04-16T08:45:47.960Z,98981.20
2023-04-16T08:48:15.634Z,98989.60
2023-04-16T08:50:44.271Z,98987.60
2023-04-16T08:53:19.240Z,98991.20
2023-04-16T08:55:50.453Z,98989.80
2023-04-16T08:58:23.118Z,98992.20
2023-04-16T09:00:49.633Z,98993.20
2023-04-16T09:03:16.369Z,98998.00
2023-04-16T09:05:49.604Z,98995.80
2023-04-16T09:08:18.584Z,98992.60
2023-04-16T09:10:45.685Z,98998.20
2023-04-16T09:13:13.445Z,99005.00
2023-04-16T09:15:41.175Z,99002.40
2023-04-16T09:18:08.744Z,99006.80
2023-04-16T09:20:35.297Z,99006.20
2023-04-16T09:23:05.279Z,99013.60
2023-04-16T09:25:34.903Z,99010.40
2023-04-16T09:28:01.398Z,99009.60
2023-04-16T09:30:28.889Z,99008.40
2023-04-16T09:33:22.796Z,99011.80
2023-04-16T09:35:53.326Z,99012.00
2023-04-16T09:38:21.097Z,99016.00
2023-04-16T09:40:47.877Z,99019.20
2023-04-16T09:43:26.971Z,99023.40
2023-04-16T09:45:55.195Z,99022.80
2023-04-16T09:48:33.093Z,99016.40
2023-04-16T09:51:01.200Z,99023.40
2023-04-16T09:53:30.699Z,99025.40
2023-04-16T09:56:07.006Z,99032.00
2023-04-16T09:58:37.646Z,99030.20
2023-04-16T10:01:10.576Z,99025.60
2023-04-16T10:03:51.022Z,99038.00
2023-04-16T10:06:21.799Z,99048.40
2023-04-16T10:08:56.817Z,99051.20
2023-04-16T10:11:32.163Z,99053.00
2023-04-16T10:13:58.768Z,99052.60
2023-04-16T10:16:26.374Z,99058.40
2023-04-16T10:18:56.607Z,99055.40
2023-04-16T10:21:24.102Z,99056.40
2023-04-16T10:23:57.526Z,99052.20
2023-04-16T10:26:25.558Z,99055.80
2023-04-16T10:28:53.036Z,99057.00
2023-04-16T10:31:20.435Z,99060.20
2023-04-16T10:33:47.836Z,99061.60
2023-04-16T10:36:26.426Z,99054.60
2023-04-16T10:38:58.014Z,99053.40
2023-04-16T10:41:26.929Z,99051.20
2023-04-16T10:44:09.159Z,99050.00
2023-04-16T10:46:44.081Z,99053.00
2023-04-16T10:49:25.848Z,99053.80
2023-04-16T10:52:09.558Z,99057.40
2023-04-16T10:54:36.806Z,99056.40
2023-04-16T10:57:05.956Z,99053.80
2023-04-16T10:59:35.660Z,99060.20
2023-04-16T11:02:20.458Z,99056.80
2023-04-16T11:04:49.529Z,99063.20
2023-04-16T11:07:32.196Z,99062.40
2023-04-16T11:10:07.099Z,99063.00
2023-04-16T11:12:39.010Z,99060.20
2023-04-16T11:15:09.069Z,99058.80
2023-04-16T11:17:44.651Z,99069.40
2023-04-16T11:20:21.048Z,99069.80
2023-04-16T11:22:53.605Z,99070.20
2023-04-16T11:25:24.485Z,99067.60
2023-04-16T11:27:52.344Z,99065.40
2023-04-16T11:30:29.636Z,99061.80
2023-04-16T11:32:56.291Z,99063.20
2023-04-16T11:35:22.957Z,99063.40
2023-04-16T11:37:49.476Z,99063.20
2023-04-16T11:40:15.979Z,99063.80
2023-04-16T11:42:51.320Z,99068.80
2023-04-16T11:45:19.508Z,99068.40
2023-04-16T11:47:53.404Z,99065.40
2023-04-16T11:50:23.214Z,99072.00
2023-04-16T11:52:53.834Z,99068.00
2023-04-16T11:55:21.358Z,99063.60
2023-04-16T11:57:48.449Z,99066.40
2023-04-16T12:00:15.960Z,99066.40
2023-04-16T12:02:55.044Z,99071.00
2023-04-16T12:05:35.780Z,99069.40
2023-04-16T12:08:06.343Z,99071.20
2023-04-16T12:10:59.555Z,99068.80
2023-04-16T12:13:26.042Z,99073.00
2023-04-16T12:15:56.153Z,99074.60
2023-04-16T12:18:26.859Z,99076.20
2023-04-16T12:20:54.272Z,99080.00
2023-04-16T12:23:30.762Z,99071.20
2023-04-16T12:26:02.445Z,99068.20
2023-04-16T12:28:35.984Z,99066.80
2023-04-16T12:31:03.802Z,99061.60
2023-04-16T12:33:31.274Z,99054.60
2023-04-16T12:35:58.057Z,99053.40
2023-04-16T12:38:26.255Z,99054.20
2023-04-16T12:40:56.607Z,99061.40
2023-04-16T12:43:23.500Z,99051.80
2023-04-16T12:45:50.432Z,99053.60
2023-04-16T12:48:17.101Z,99052.20
2023-04-16T12:50:44.488Z,99047.20
2023-04-16T12:53:12.010Z,99039.80
2023-04-16T12:55:38.545Z,99039.80
2023-04-16T12:58:05.335Z,99050.20
2023-04-16T13:00:31.870Z,99050.40
2023-04-16T13:02:58.538Z,99052.60
2023-04-16T13:05:25.072Z,99049.80
2023-04-16T13:07:51.930Z,99056.20
2023-04-16T13:10:20.706Z,99054.60
2023-04-16T13:12:47.948Z,99064.00
2023-04-16T13:15:14.378Z,99064.00
2023-04-16T13:17:40.786Z,99070.00
2023-04-16T13:20:08.967Z,99067.40
2023-04-16T13:22:35.456Z,99068.60
2023-04-16T13:25:01.996Z,99062.20
2023-04-16T13:27:32.393Z,99066.60
2023-04-16T13:29:58.927Z,99066.00
2023-04-16T13:32:25.439Z,99065.40
2023-04-16T13:34:52.396Z,99064.00
2023-04-16T13:37:18.830Z,99065.80
2023-04-16T13:39:45.980Z,99066.20
2023-04-16T13:42:12.402Z,99064.40
2023-04-16T13:44:38.776Z,99062.80
2023-04-16T13:47:05.375Z,99065.40
2023-04-16T13:49:35.551Z,99067.40
2023-04-16T13:52:02.331Z,99062.60
2023-04-16T13:54:32.644Z,99069.20
2023-04-16T13:56:59.143Z,99076.60
2023-04-16T13:59:26.461Z,99078.00
2023-04-16T14:01:52.926Z,99077.60
2023-04-16T14:04:19.485Z,99073.20
2023-04-16T14:06:47.041Z,99077.40
2023-04-16T14:09:13.472Z,99079.40
2023-04-16T14:11:40.400Z,99078.00
2023-04-16T14:14:06.962Z,99078.40
2023-04-16T14:16:35.130Z,99074.40
2023-04-16T14:19:01.568Z,99073.00
2023-04-16T14:21:32.430Z,99076.40
2023-04-16T14:23:58.841Z,99074.40
2023-04-16T14:26:25.373Z,99075.60
2023-04-16T14:28:52.052Z,99075.60
2023-04-16T14:31:20.073Z,99079.40
2023-04-16T14:33:47.116Z,99077.60
2023-04-16T14:36:14.564Z,99075.20
2023-04-16T14:38:43.209Z,99082.20
2023-04-16T14:41:10.691Z,99079.80
2023-04-16T14:43:38.672Z,99078.80
2023-04-16T14:46:07.221Z,99086.00
2023-04-16T14:48:37.078Z,99079.60
2023-04-16T14:51:03.613Z,99078.60
2023-04-16T14:53:31.213Z,99081.40
2023-04-16T14:55:58.970Z,99088.60
2023-04-16T14:58:26.763Z,99088.80
2023-04-16T15:00:53.833Z,99084.60
2023-04-16T15:03:20.841Z,99085.00
2023-04-16T15:05:55.350Z,99088.40
2023-04-16T15:08:23.466Z,99083.00
2023-04-16T15:10:51.299Z,99086.60
2023-04-16T15:13:20.703Z,99088.80
2023-04-16T15:15:47.484Z,99091.60
2023-04-16T15:18:14.012Z,99095.80
2023-04-16T15:20:40.497Z,99099.80
2023-04-16T15:23:06.992Z,99097.20
2023-04-16T15:25:33.551Z,99100.40
2023-04-16T15:28:00.224Z,99104.20
2023-04-16T15:30:26.576Z,99109.20
2023-04-16T15:32:54.940Z,99107.80
2023-04-16T15:35:21.724Z,99107.80
2023-04-16T15:37:48.319Z,99107.60
2023-04-16T15:40:16.172Z,99110.00
2023-04-16T15:42:43.750Z,99113.80
2023-04-16T15:45:10.497Z,99115.40
2023-04-16T15:47:37.991Z,99115.00
2023-04-16T15:50:06.883Z,99112.20
2023-04-16T15:52:33.448Z,99113.40
2023-04-16T15:55:02.976Z,99116.00
2023-04-16T15:57:31.030Z,99117.80
2023-04-16T16:00:06.039Z,99114.60
2023-04-16T16:02:34.209Z,99113.20
2023-04-16T16:05:00.912Z,99113.20
2023-04-16T16:07:27.689Z,99114.40
2023-04-16T16:09:54.091Z,99111.40
2023-04-16T16:12:20.622Z,99112.40
2023-04-16T16:14:47.673Z,99111.80
2023-04-16T16:17:14.303Z,99112.40
2023-04-16T16:19:45.218Z,99110.00
2023-04-16T16:22:13.106Z,99117.40
2023-04-16T16:24:39.583Z,99119.60
2023-04-16T16:27:06.391Z,99118.40
2023-04-16T16:29:33.258Z,99121.20
2023-04-16T16:31:59.744Z,99123.60
2023-04-16T16:34:31.279Z,99124.20
2023-04-16T16:36:57.721Z,99128.20
2023-04-16T16:39:25.354Z,99129.00
2023-04-16T16:41:54.845Z,99135.20
2023-04-16T16:44:21.929Z,99131.40
2023-04-16T16:46:58.710Z,99135.60
2023-04-16T16:49:25.309Z,99136.00
2023-04-16T16:51:51.707Z,99137.80
2023-04-16T16:54:18.218Z,99142.40
2023-04-16T16:56:44.659Z,99148.00
2023-04-16T16:59:20.237Z,99149.60
2023-04-16T17:01:46.693Z,99145.60
2023-04-16T17:04:13.300Z,99146.40
2023-04-16T17:06:39.975Z,99150.20
2023-04-16T17:09:07.198Z,99152.60
2023-04-16T17:11:34.008Z,99155.00
2023-04-16T17:14:00.426Z,99163.80
2023-04-16T17:16:26.863Z,99164.40
2023-04-16T17:18:53.345Z,99170.40
2023-04-16T17:21:19.703Z,99177.40
2023-04-16T17:23:46.147Z,99179.20
2023-04-16T17:26:22.425Z,99180.00
2023-04-16T17:28:48.943Z,99180.00
2023-04-16T17:31:15.512Z,99188.80
2023-04-16T17:33:42.374Z,99190.00
2023-04-16T17:36:09.023Z,99191.60
2023-04-16T17:38:35.432Z,99192.20
2023-04-16T17:41:02.119Z,99195.80
2023-04-16T17:43:28.579Z,99198.20
2023-04-16T17:45:55.139Z,99201.60
2023-04-16T17:48:21.507Z,99208.00
2023-04-16T17:50:48.883Z,99210.40
2023-04-16T17:53:15.643Z,99210.40
2023-04-16T17:55:56.007Z,99212.00
2023-04-16T17:58:23.503Z,99212.40
2023-04-16T18:00:49.918Z,99215.60
2023-04-16T18:03:16.584Z,99218.20
2023-04-16T18:05:43.275Z,99219.80
2023-04-16T18:08:09.765Z,99227.80
2023-04-16T18:10:36.160Z,99225.00
2023-04-16T18:13:02.588Z,99233.80
2023-04-16T18:15:29.313Z,99231.20
2023-04-16T18:17:56.017Z,99234.00
2023-04-16T18:20:22.623Z,99236.60
2023-04-16T18:22:49.065Z,99235.40
2023-04-16T18:25:16.263Z,99240.40
2023-04-16T18:27:42.939Z,99243.20
2023-04-16T18:30:18.985Z,99240.00
2023-04-16T18:33:16.658Z,99245.60
2023-04-16T18:35:36.538Z,99247.00
2023-04-16T18:38:03.165Z,99248.60
2023-04-16T18:40:34.998Z,99250.40
2023-04-16T18:43:01.894Z,99251.60
2023-04-16T18:45:28.468Z,99248.40
2023-04-16T18:47:58.800Z,99252.20
2023-04-16T18:50:28.458Z,99250.00
2023-04-16T18:52:54.848Z,99248.60
2023-04-16T18:55:21.221Z,99251.40
2023-04-16T18:57:47.776Z,99253.40
2023-04-16T19:00:15.185Z,99253.40
2023-04-16T19:02:42.498Z,99255.60
2023-04-16T19:05:09.674Z,99258.40
2023-04-16T19:07:37.475Z,99257.40
2023-04-16T19:10:05.297Z,99257.80
2023-04-16T19:12:32.520Z,99257.60
2023-04-16T19:14:59.358Z,99254.40
2023-04-16T19:17:26.608Z,99257.60
2023-04-16T19:19:53.431Z,99260.80
2023-04-16T19:22:19.868Z,99260.60
2023-04-16T19:24:46.697Z,99262.80
2023-04-16T19:27:13.275Z,99265.40
2023-04-16T19:29:40.943Z,99262.20
2023-04-16T19:32:07.465Z,99263.80
2023-04-16T19:34:33.897Z,99268.60
2023-04-16T19:37:00.426Z,99267.40
2023-04-16T19:39:27.982Z,99264.80
2023-04-16T19:41:54.465Z,99268.20
2023-04-16T19:44:23.097Z,99270.20
2023-04-16T19:46:49.535Z,99264.00
2023-04-16T19:49:16.100Z,99264.20
2023-04-16T19:51:42.508Z,99267.20
2023-04-16T19:54:09.232Z,99265.40
2023-04-16T19:56:35.866Z,99266.00
2023-04-16T19:59:02.695Z,99265.80
2023-04-16T20:01:31.081Z,99261.80
2023-04-16T20:03:57.653Z,99263.00
2023-04-16T20:06:25.184Z,99263.20
2023-04-16T20:08:51.656Z,99262.00
2023-04-16T20:11:18.250Z,99264.20
2023-04-16T20:13:48.570Z,99266.00
2023-04-16T20:16:15.015Z,99267.20
2023-04-16T20:18:42.727Z,99272.60
2023-04-16T20:21:10.140Z,99276.20
2023-04-16T20:23:36.500Z,99269.60
2023-04-16T20:26:04.370Z,99272.60
2023-04-16T20:28:30.920Z,99273.20
2023-04-16T20:30:57.375Z,99271.80
2023-04-16T20:33:23.887Z,99277.40
2023-04-16T20:35:52.077Z,99275.40
2023-04-16T20:38:23.699Z,99275.80
2023-04-16T20:41:06.238Z,99271.20
2023-04-16T20:43:38.176Z,99276.00
2023-04-16T20:46:05.100Z,99273.20
2023-04-16T20:48:31.884Z,99273.00
2023-04-16T20:51:03.643Z,99270.80
2023-04-16T20:53:32.675Z,99265.00
2023-04-16T20:56:02.780Z,99266.80
2023-04-16T20:58:29.802Z,99270.40
2023-04-16T21:00:57.617Z,99272.40
2023-04-16T21:03:25.027Z,99274.40
2023-04-16T21:05:53.953Z,99270.80
2023-04-16T21:08:24.102Z,99274.40
2023-04-16T21:10:51.241Z,99275.20
2023-04-16T21:13:18.735Z,99278.60
2023-04-16T21:15:45.701Z,99276.40
2023-04-16T21:18:12.942Z,99276.20
2023-04-16T21:20:39.795Z,99277.00
2023-04-16T21:23:06.615Z,99279.00
2023-04-16T21:25:33.521Z,99277.20
2023-04-16T21:28:00.159Z,99278.60
2023-04-16T21:30:27.067Z,99277.80
2023-04-16T21:32:53.579Z,99281.60
2023-04-16T21:35:20.075Z,99280.00
2023-04-16T21:37:46.705Z,99277.80
2023-04-16T21:40:13.344Z,99278.40
2023-04-16T21:42:42.522Z,99278.00
2023-04-16T21:45:16.987Z,99275.60
2023-04-16T21:47:43.884Z,99278.80
2023-04-16T21:50:11.701Z,99274.00
2023-04-16T21:52:40.759Z,99276.40
2023-04-16T21:55:09.454Z,99275.20
2023-04-16T21:57:35.843Z,99280.80
2023-04-16T22:00:02.964Z,99281.40
2023-04-16T22:02:29.642Z,99282.00
2023-04-16T22:04:56.071Z,99284.80
2023-04-16T22:07:22.430Z,99283.00
2023-04-16T22:09:49.071Z,99288.00
2023-04-16T22:12:15.516Z,99286.20
2023-04-16T22:14:49.172Z,99284.00
2023-04-16T22:17:23.666Z,99283.80
2023-04-16T22:19:50.841Z,99281.40
2023-04-16T22:22:17.214Z,99280.80
2023-04-16T22:24:43.956Z,99279.80
2023-04-16T22:27:10.516Z,99280.80
2023-04-16T22:29:36.945Z,99278.00
2023-04-16T22:32:03.512Z,99277.40
2023-04-16T22:34:29.964Z,99279.20
2023-04-16T22:36:56.899Z,99282.20
2023-04-16T22:39:23.354Z,99282.00
2023-04-16T22:41:49.855Z,99281.60
2023-04-16T22:44:16.335Z,99283.80
2023-04-16T22:46:44.847Z,99281.00
2023-04-16T22:49:11.452Z,99288.00
2023-04-16T22:51:38.155Z,99287.60
2023-04-16T22:54:04.575Z,99288.40
2023-04-16T22:56:31.203Z,99292.00
2023-04-16T22:58:57.696Z,99290.20
2023-04-16T23:01:24.832Z,99288.60
2023-04-16T23:03:52.485Z,99290.80
2023-04-16T23:06:18.880Z,99290.20
2023-04-16T23:08:45.443Z,99287.00
2023-04-16T23:11:12.005Z,99281.80
2023-04-16T23:13:38.462Z,99283.20
2023-04-16T23:16:05.892Z,99282.80
2023-04-16T23:18:32.437Z,99286.20
2023-04-16T23:20:58.925Z,99286.60
2023-04-16T23:23:25.539Z,99285.00
2023-04-16T23:25:53.670Z,99282.20
2023-04-16T23:28:21.385Z,99278.20
2023-04-16T23:30:52.697Z,99279.00
2023-04-16T23:33:19.239Z,99271.60
2023-04-16T23:35:47.395Z,99277.00
2023-04-16T23:38:13.947Z,99274.60
2023-04-16T23:40:40.452Z,99272.00
2023-04-16T23:43:06.913Z,99271.80
2023-04-16T23:45:33.380Z,99271.80
2023-04-16T23:48:00.295Z,99266.60
2023-04-16T23:50:26.841Z,99269.60
2023-04-16T23:52:53.316Z,99269.60
2023-04-16T23:55:19.828Z,99271.00
2023-04-16T23:57:46.326Z,99273.40
